Time;durP1;ratioP1;P1;durP2;ratioP2;P2;SDS_P1;SDS_P2;PMS_P1;PMS_P2;Temp;Humidity;BMP_temperature;BMP_pressure;BME280_temperature;BME280_humidity;BME280_pressure;Samples;Min_cycle;Max_cycle;Signal;HPM_P1;HPM_P2
2024/04/19 00:02:01;;;;;;;10.90;4.93;;;;;;;11.39;54.85;101438.78;5373570;26;94950;-87
2024/04/19 00:04:26;;;;;;;9.75;3.95;;;;;;;11.40;55.15;101425.75;5333749;26;101158;-87
2024/04/19 00:06:52;;;;;;;10.30;4.43;;;;;;;11.42;55.28;101410.13;5338113;26;97466;-87
2024/04/19 00:09:17;;;;;;;9.95;4.28;;;;;;;11.43;55.32;101411.88;5358298;26;95107;-87
2024/04/19 00:11:42;;;;;;;11.30;3.30;;;;;;;11.43;55.40;101420.59;5384396;26;95018;-87
2024/04/19 00:14:08;;;;;;;8.30;3.33;;;;;;;11.45;55.59;101407.56;5367438;26;98734;-87
2024/04/19 00:16:33;;;;;;;9.52;3.45;;;;;;;11.45;55.44;101402.34;5380305;26;98172;-86
2024/04/19 00:19:00;;;;;;;8.43;2.83;;;;;;;11.43;55.61;101394.47;5358179;26;106825;-87
2024/04/19 00:21:25;;;;;;;11.75;3.42;;;;;;;11.43;55.48;101391.00;5348043;26;94983;-87
2024/04/19 00:23:50;;;;;;;12.38;4.03;;;;;;;11.43;55.69;101385.75;5369917;26;97473;-87
2024/04/19 00:26:16;;;;;;;10.27;3.72;;;;;;;11.43;55.92;101393.59;5350094;26;97751;-87
2024/04/19 00:28:41;;;;;;;12.85;3.60;;;;;;;11.43;55.87;101377.94;5382787;26;94768;-87
2024/04/19 00:31:07;;;;;;;7.80;3.17;;;;;;;11.44;55.75;101377.06;5388628;26;95010;-87
2024/04/19 00:33:33;;;;;;;7.15;3.33;;;;;;;11.42;55.98;101376.16;5337172;26;97658;-86
2024/04/19 00:35:58;;;;;;;11.85;3.92;;;;;;;11.40;55.85;101373.50;5362447;26;95592;-87
2024/04/19 00:38:23;;;;;;;8.32;3.45;;;;;;;11.40;55.80;101365.66;5342268;26;94784;-87
2024/04/19 00:40:49;;;;;;;11.07;3.33;;;;;;;11.38;55.84;101356.94;5399718;26;95014;-87
2024/04/19 00:43:15;;;;;;;7.75;2.85;;;;;;;11.37;56.00;101363.03;5333544;26;95809;-87
2024/04/19 00:45:40;;;;;;;9.68;2.88;;;;;;;11.37;56.37;101365.66;5350579;26;96391;-86
2024/04/19 00:48:15;;;;;;;6.82;2.30;;;;;;;11.38;55.96;101354.31;5356024;26;95046;-87
2024/04/19 00:50:58;;;;;;;9.30;2.60;;;;;;;11.38;56.19;101343.00;5387883;26;95205;-86
2024/04/19 00:53:26;;;;;;;8.98;3.35;;;;;;;11.38;56.36;101346.50;5316791;26;98553;-86
2024/04/19 00:55:57;;;;;;;8.48;3.85;;;;;;;11.37;56.40;101329.06;5324853;26;98791;-87
2024/04/19 00:58:26;;;;;;;6.85;3.28;;;;;;;11.37;56.29;101326.47;5363073;26;95573;-87
2024/04/19 01:00:53;;;;;;;6.97;3.58;;;;;;;11.40;56.47;101317.78;5367493;26;94953;-86
2024/04/19 01:03:18;;;;;;;9.13;2.50;;;;;;;11.41;56.57;101307.38;5375104;26;95807;-86
2024/04/19 01:05:44;;;;;;;10.30;3.47;;;;;;;11.42;56.44;101303.00;5359455;26;98687;-86
2024/04/19 01:08:24;;;;;;;16.60;3.63;;;;;;;11.41;56.32;101296.06;5384091;26;94984;-87
2024/04/19 01:10:51;;;;;;;6.38;2.17;;;;;;;11.40;56.38;101295.16;5324854;26;94922;-87
2024/04/19 01:13:16;;;;;;;6.70;2.35;;;;;;;11.39;56.73;101295.13;5372147;26;95882;-87
2024/04/19 01:15:42;;;;;;;5.95;2.72;;;;;;;11.38;56.33;101289.03;5361786;26;95776;-87
2024/04/19 01:18:07;;;;;;;6.90;2.17;;;;;;;11.37;56.74;101278.56;5363597;26;94890;-87
2024/04/19 01:20:33;;;;;;;8.35;2.33;;;;;;;11.36;56.83;101277.69;5331332;26;95078;-87
2024/04/19 01:22:59;;;;;;;5.75;1.90;;;;;;;11.36;56.87;101276.81;5370012;26;98305;-87
2024/04/19 01:25:36;;;;;;;4.50;1.75;;;;;;;11.33;56.91;101272.41;5345546;26;98651;-88
2024/04/19 01:28:09;;;;;;;5.93;2.25;;;;;;;11.31;57.12;101258.44;5337710;26;94833;-88
2024/04/19 01:30:40;;;;;;;5.97;3.10;;;;;;;11.29;57.05;101249.72;5361341;26;94780;-87
2024/04/19 01:33:06;;;;;;;9.02;2.65;;;;;;;11.27;57.32;101247.94;5350755;26;95598;-87
2024/04/19 01:35:31;;;;;;;4.97;2.17;;;;;;;11.24;57.33;101243.53;5335166;26;95954;-87
2024/04/19 01:37:57;;;;;;;8.18;3.35;;;;;;;11.24;57.69;101233.94;5365825;26;94835;-88
2024/04/19 01:40:22;;;;;;;8.43;3.00;;;;;;;11.27;57.60;101232.28;5367264;26;94806;-88
2024/04/19 01:42:47;;;;;;;8.95;3.65;;;;;;;11.24;57.83;101226.13;5341402;26;96226;-88
2024/04/19 01:45:13;;;;;;;8.75;3.60;;;;;;;11.24;57.79;101218.28;5336256;26;97466;-87
2024/04/19 01:47:39;;;;;;;8.27;3.58;;;;;;;11.24;57.79;101206.97;5388390;26;94861;-88
2024/04/19 01:50:08;;;;;;;8.05;2.72;;;;;;;11.20;57.98;101210.41;5373316;26;94890;-89
2024/04/19 01:52:34;;;;;;;6.97;2.63;;;;;;;11.19;57.89;101206.91;5337313;26;96018;-88
2024/04/19 01:54:59;;;;;;;8.60;3.03;;;;;;;11.19;58.15;101198.19;5364560;26;95706;-88
2024/04/19 01:57:25;;;;;;;8.50;3.65;;;;;;;11.19;58.12;101199.09;5388096;26;94929;-88
2024/04/19 01:59:50;;;;;;;6.57;3.67;;;;;;;11.20;58.52;101197.34;5346394;26;94897;-89
2024/04/19 02:02:16;;;;;;;7.38;3.50;;;;;;;11.19;58.37;101188.63;5360688;26;98633;-88
2024/04/19 02:04:41;;;;;;;7.60;3.60;;;;;;;11.17;58.58;101176.41;5357991;26;98430;-89
2024/04/19 02:07:07;;;;;;;11.85;3.63;;;;;;;11.16;58.73;101170.31;5359747;26;95025;-88
2024/04/19 02:09:34;;;;;;;8.27;3.53;;;;;;;11.17;59.01;101168.56;5350887;26;94871;-88
2024/04/19 02:12:00;;;;;;;8.82;2.80;;;;;;;11.15;58.78;101163.31;5329598;26;98798;-88
2024/04/19 02:14:25;;;;;;;9.15;3.90;;;;;;;11.15;59.05;101154.63;5339187;26;95882;-87
2024/04/19 02:16:51;;;;;;;8.30;4.25;;;;;;;11.14;58.75;101156.34;5390875;26;94719;-89
2024/04/19 02:19:16;;;;;;;6.57;4.28;;;;;;;11.15;59.30;101146.78;5340310;26;96083;-88
2024/04/19 02:21:42;;;;;;;7.05;3.00;;;;;;;11.15;59.22;101142.44;5396823;26;98617;-89
2024/04/19 02:24:08;;;;;;;9.93;3.10;;;;;;;11.16;59.36;101138.09;5370392;26;97733;-89
2024/04/19 02:26:34;;;;;;;8.20;3.60;;;;;;;11.17;59.59;101130.28;5399532;26;94818;-88
2024/04/19 02:31:44;;;;;;;8.02;3.58;;;;;;;11.22;59.62;101115.56;5349003;26;99038;-88
2024/04/19 02:34:10;;;;;;;7.88;3.45;;;;;;;11.22;59.32;101120.78;5367619;26;98837;-89
2024/04/19 02:36:35;;;;;;;7.50;2.90;;;;;;;11.25;59.61;101112.13;5399699;26;94778;-88
2024/04/19 02:39:01;;;;;;;6.22;2.83;;;;;;;11.27;59.77;101105.19;5385142;26;94889;-90
2024/04/19 02:41:26;;;;;;;5.82;3.25;;;;;;;11.30;59.69;101099.13;5395739;26;98705;-90
2024/04/19 02:43:52;;;;;;;6.45;3.75;;;;;;;11.31;59.70;101087.81;5388421;26;98969;-88
2024/04/19 02:46:17;;;;;;;6.63;3.42;;;;;;;11.33;59.95;101088.72;5355906;26;94851;-89
2024/04/19 02:48:43;;;;;;;6.63;3.15;;;;;;;11.34;59.86;101078.28;5389428;26;95021;-88
2024/04/19 02:51:09;;;;;;;10.15;4.28;;;;;;;11.36;59.98;101080.94;5367319;26;95467;-89
2024/04/19 02:53:34;;;;;;;7.90;4.20;;;;;;;11.37;60.15;101074.84;5356143;26;98573;-88
2024/04/19 02:56:00;;;;;;;8.00;4.30;;;;;;;11.39;60.10;101070.50;5367646;26;94872;-90
2024/04/19 02:58:26;;;;;;;6.97;4.13;;;;;;;11.40;60.18;101067.91;5356605;26;95036;-89
2024/04/19 03:00:52;;;;;;;10.77;3.92;;;;;;;11.43;60.49;101064.47;5368090;26;98393;-89
2024/04/19 03:03:17;;;;;;;7.45;3.55;;;;;;;11.46;60.53;101063.63;5351601;26;95483;-88
2024/04/19 03:05:44;;;;;;;6.10;3.50;;;;;;;11.47;60.53;101049.72;5366459;26;94823;-89
2024/04/19 03:08:09;;;;;;;5.72;3.45;;;;;;;11.49;60.58;101050.63;5358356;26;94860;-90
2024/04/19 03:10:39;;;;;;;7.25;4.25;;;;;;;11.51;60.75;101051.50;5387551;26;98336;-90
2024/04/19 03:13:07;;;;;;;5.45;4.07;;;;;;;11.51;60.65;101041.91;5334093;26;97319;-90
2024/04/19 03:15:33;;;;;;;6.93;3.17;;;;;;;11.54;60.62;101030.66;5356975;26;94691;-90
2024/04/19 03:17:58;;;;;;;8.07;3.55;;;;;;;11.55;61.01;101028.06;5335297;26;94901;-90
2024/04/19 03:20:24;;;;;;;7.35;3.53;;;;;;;11.58;60.82;101020.22;5390394;26;95467;-89
2024/04/19 03:22:49;;;;;;;5.57;3.00;;;;;;;11.60;61.09;101021.16;5356739;26;95825;-89
2024/04/19 03:25:15;;;;;;;8.15;4.45;;;;;;;11.63;61.06;101021.16;5360430;26;94719;-90
2024/04/19 03:27:40;;;;;;;4.72;2.92;;;;;;;11.65;61.07;101015.09;5369767;26;94986;-89
2024/04/19 03:30:06;;;;;;;5.72;2.80;;;;;;;11.65;61.30;101008.13;5367706;26;95915;-90
2024/04/19 03:32:31;;;;;;;5.07;2.70;;;;;;;11.68;61.19;101002.06;5367963;26;98694;-90
2024/04/19 03:34:57;;;;;;;6.68;3.60;;;;;;;11.70;61.33;100993.38;5321350;26;94796;-89
2024/04/19 03:37:23;;;;;;;6.63;3.20;;;;;;;11.72;61.39;100994.25;5362072;26;94798;-89
2024/04/19 03:39:48;;;;;;;5.93;3.78;;;;;;;11.76;61.74;100987.31;5334697;26;97999;-91
2024/04/19 03:42:18;;;;;;;5.28;2.97;;;;;;;11.78;61.45;100988.22;5377577;26;98730;-90
2024/04/19 03:47:27;;;;;;;4.28;2.63;;;;;;;11.84;61.62;100980.44;5356143;26;94882;-89
2024/04/19 03:49:53;;;;;;;6.78;2.90;;;;;;;11.86;61.78;100983.94;5363900;26;98922;-90
2024/04/19 03:52:18;;;;;;;5.25;2.78;;;;;;;11.92;61.95;100981.41;5353241;26;98520;-89
2024/04/19 03:54:44;;;;;;;5.72;3.75;;;;;;;11.98;61.90;100980.63;5362764;26;94816;-90
2024/04/19 03:57:09;;;;;;;5.15;3.22;;;;;;;11.99;61.86;100971.91;5339731;26;94992;-90
2024/04/19 03:59:35;;;;;;;7.18;3.60;;;;;;;11.99;61.81;100964.91;5359381;26;95951;-90
2024/04/19 04:02:13;;;;;;;4.95;2.95;;;;;;;12.03;62.06;100957.97;5332213;26;95593;-90
2024/04/19 04:04:52;;;;;;;5.57;3.92;;;;;;;12.05;62.30;100956.28;5376423;26;94785;-90
2024/04/19 04:07:17;;;;;;;4.95;2.90;;;;;;;12.09;62.20;100951.94;5363283;26;95141;-90
2024/04/19 04:09:43;;;;;;;8.40;4.00;;;;;;;12.13;62.58;100956.34;5370385;26;98133;-90
2024/04/19 04:12:08;;;;;;;5.80;3.95;;;;;;;12.17;62.60;100952.88;5371577;26;98499;-91
2024/04/19 04:14:33;;;;;;;5.28;3.42;;;;;;;12.20;62.70;100952.91;5339423;26;94766;-91
2024/04/19 04:16:59;;;;;;;6.78;3.88;;;;;;;12.24;62.71;100957.28;5349598;26;94935;-90
2024/04/19 04:19:24;;;;;;;9.05;4.38;;;;;;;12.28;62.65;100942.47;5340678;26;98495;-90
2024/04/19 04:21:50;;;;;;;6.82;3.83;;;;;;;12.32;62.90;100939.91;5371941;26;95971;-89
2024/04/19 04:24:15;;;;;;;7.60;3.80;;;;;;;12.35;62.96;100939.03;5363096;26;94837;-90
2024/04/19 04:26:41;;;;;;;8.55;4.20;;;;;;;12.38;63.07;100936.47;5359928;26;94697;-90
2024/04/19 04:29:06;;;;;;;10.00;4.05;;;;;;;12.42;63.45;100926.88;5368646;26;98554;-90
2024/04/19 04:31:31;;;;;;;8.90;4.78;;;;;;;12.45;63.33;100933.03;5370152;26;99076;-90
2024/04/19 04:33:57;;;;;;;12.60;5.43;;;;;;;12.48;63.51;100916.47;5368723;26;95006;-91
2024/04/19 04:36:22;;;;;;;10.18;5.40;;;;;;;12.50;63.22;100913.00;5347455;26;95055;-89
2024/04/19 04:38:48;;;;;;;10.77;4.55;;;;;;;12.55;63.18;100926.13;5362181;26;98654;-89
2024/04/19 04:41:14;;;;;;;18.42;6.75;;;;;;;12.59;63.02;100925.25;5320753;26;98222;-90
2024/04/19 04:43:40;;;;;;;13.30;5.35;;;;;;;12.63;63.39;100920.91;5311245;26;94887;-89
2024/04/19 04:46:06;;;;;;;17.67;6.22;;;;;;;12.66;63.34;100919.19;5354962;26;94921;-89
2024/04/19 04:48:31;;;;;;;15.27;5.72;;;;;;;12.70;63.55;100909.59;5360257;26;97758;-89
2024/04/19 04:50:59;;;;;;;18.30;5.68;;;;;;;12.72;63.38;100913.97;5354763;26;98461;-92
2024/04/19 04:53:25;;;;;;;13.13;5.45;;;;;;;12.76;63.47;100902.66;5359125;26;94870;-90
2024/04/19 04:55:52;;;;;;;12.27;6.07;;;;;;;12.78;63.60;100905.28;5371709;26;94727;-91
2024/04/19 04:58:17;;;;;;;15.48;5.15;;;;;;;12.80;63.42;100903.56;5371253;26;98727;-93
2024/04/19 05:00:43;;;;;;;14.85;6.15;;;;;;;12.82;63.76;100898.34;5391371;26;97198;-87
2024/04/19 05:03:08;;;;;;;17.08;5.60;;;;;;;12.84;63.47;100907.06;5338694;26;95149;-89
2024/04/19 05:05:33;;;;;;;15.00;4.95;;;;;;;12.86;63.59;100908.81;5350790;26;95115;-89
2024/04/19 05:07:59;;;;;;;15.00;5.20;;;;;;;12.90;63.59;100909.69;5329353;26;96671;-88
2024/04/19 05:10:24;;;;;;;14.48;5.30;;;;;;;12.91;63.75;100914.94;5369639;26;95631;-93
2024/04/19 05:12:50;;;;;;;12.27;4.55;;;;;;;12.93;63.67;100910.56;5355670;26;94820;-95
2024/04/19 05:15:16;;;;;;;19.73;5.30;;;;;;;12.97;63.66;100914.09;5392723;26;94935;-90
2024/04/19 05:17:42;;;;;;;13.68;4.53;;;;;;;12.99;63.70;100914.09;5374757;26;98425;-95
2024/04/19 05:20:08;;;;;;;16.92;4.55;;;;;;;13.01;63.62;100913.25;5344967;26;97918;-95
2024/04/19 05:22:37;;;;;;;15.23;5.03;;;;;;;13.02;63.74;100917.59;5354873;26;94862;-90
2024/04/19 05:25:02;;;;;;;14.65;4.80;;;;;;;13.04;63.71;100909.75;5358684;26;94984;-90
2024/04/19 05:27:28;;;;;;;17.35;4.68;;;;;;;13.08;63.76;100916.72;5331960;26;98551;-89
2024/04/19 05:29:53;;;;;;;13.93;4.68;;;;;;;13.08;63.89;100917.63;5350705;26;95913;-94
2024/04/19 05:32:19;;;;;;;14.15;4.68;;;;;;;13.10;63.63;100915.00;5378652;26;94751;-93
2024/04/19 05:34:44;;;;;;;15.77;4.57;;;;;;;13.11;63.40;100919.38;5322684;26;95021;-95
2024/04/19 05:37:09;;;;;;;12.27;4.30;;;;;;;13.11;63.78;100922.84;5333930;26;98365;-90
2024/04/19 05:39:35;;;;;;;13.50;4.05;;;;;;;13.13;63.89;100923.72;5391762;26;96057;-90
2024/04/19 05:42:00;;;;;;;16.48;4.18;;;;;;;13.18;63.80;100917.66;5351269;26;94980;-89
2024/04/19 05:44:31;;;;;;;14.85;4.50;;;;;;;13.19;63.81;100916.75;5352194;26;94926;-89
2024/04/19 05:46:58;;;;;;;18.35;3.65;;;;;;;13.21;63.75;100915.91;5361878;26;95967;-90
2024/04/19 05:49:24;;;;;;;13.73;3.70;;;;;;;13.22;63.80;100924.66;5391659;26;95876;-90
2024/04/19 05:51:49;;;;;;;12.95;3.10;;;;;;;13.23;63.86;100910.69;5381961;26;94912;-95
2024/04/19 05:54:14;;;;;;;13.65;3.30;;;;;;;13.24;63.92;100907.19;5374483;26;94849;-94
2024/04/19 05:56:40;;;;;;;16.60;3.03;;;;;;;13.25;63.80;100908.94;5403628;26;96604;-96
2024/04/19 05:59:05;;;;;;;12.50;3.80;;;;;;;13.25;63.70;100912.44;5376433;26;97495;-95
2024/04/19 06:01:31;;;;;;;23.45;4.13;;;;;;;13.27;63.78;100910.69;5375755;26;94679;-95
2024/04/19 06:03:56;;;;;;;17.10;3.70;;;;;;;13.27;63.99;100909.81;5376179;26;94821;-95
2024/04/19 06:06:23;;;;;;;18.02;4.47;;;;;;;13.28;63.91;100914.16;5375435;26;97964;-95
2024/04/19 06:08:49;;;;;;;24.38;3.67;;;;;;;13.30;63.90;100915.06;5369212;26;96574;-95
2024/04/19 06:11:15;;;;;;;17.77;3.70;;;;;;;13.29;64.03;100911.56;5345877;26;94602;-95
2024/04/19 06:13:40;;;;;;;14.15;3.90;;;;;;;13.32;63.92;100910.75;5405598;26;95057;-93
2024/04/19 06:16:07;;;;;;;18.35;4.70;;;;;;;13.34;63.92;100914.22;5405443;26;95846;-94
2024/04/19 06:18:33;;;;;;;15.18;4.22;;;;;;;13.38;63.95;100912.50;5406271;26;95570;-95
2024/04/19 06:20:58;;;;;;;18.13;3.33;;;;;;;13.42;63.94;100917.75;5375855;26;94669;-94
2024/04/19 06:23:23;;;;;;;14.32;3.40;;;;;;;13.43;63.84;100908.16;5374308;26;94993;-94
2024/04/19 06:25:49;;;;;;;22.30;4.10;;;;;;;13.45;63.76;100909.88;5343777;26;96772;-95
2024/04/19 06:28:14;;;;;;;18.02;3.75;;;;;;;13.48;63.93;100914.28;5366336;26;96885;-93
2024/04/19 06:30:40;;;;;;;18.42;3.70;;;;;;;13.49;63.93;100913.38;5330052;26;94760;-96
2024/04/19 06:33:05;;;;;;;13.93;3.22;;;;;;;13.52;63.90;100910.78;5345598;26;94992;-96
2024/04/19 06:35:33;;;;;;;17.83;3.70;;;;;;;13.52;63.96;100898.53;5360227;26;96890;-92
2024/04/19 06:37:58;;;;;;;17.65;4.07;;;;;;;13.54;64.16;100906.41;5364720;26;95780;-90
2024/04/19 06:40:24;;;;;;;17.52;3.78;;;;;;;13.54;64.02;100898.53;5333294;26;94941;-92
2024/04/19 06:42:49;;;;;;;16.20;4.40;;;;;;;13.58;64.03;100896.78;5331272;26;94957;-92
2024/04/19 06:45:15;;;;;;;19.05;3.70;;;;;;;13.60;64.09;100876.69;5346881;26;98784;-92
2024/04/19 06:47:40;;;;;;;19.50;3.80;;;;;;;13.65;64.31;100894.19;5365157;26;95558;-93
2024/04/19 06:50:06;;;;;;;19.70;4.47;;;;;;;13.69;64.15;100884.59;5371053;26;94786;-92
2024/04/19 06:52:32;;;;;;;19.60;4.57;;;;;;;13.72;63.69;100884.56;5365250;26;94789;-92
2024/04/19 06:54:57;;;;;;;23.30;4.25;;;;;;;13.74;64.08;100889.81;5404687;26;94670;-92
2024/04/19 06:57:22;;;;;;;18.77;3.50;;;;;;;13.76;63.95;100885.44;5374257;26;98121;-93
2024/04/19 06:59:48;;;;;;;12.13;3.38;;;;;;;13.76;63.81;100878.47;5404938;26;94998;-93
2024/04/19 07:02:13;;;;;;;23.00;4.07;;;;;;;13.78;63.82;100881.97;5374783;26;94946;-93
2024/04/19 07:04:40;;;;;;;16.75;4.28;;;;;;;13.77;63.65;100882.81;5374398;26;96137;-94
2024/04/19 07:07:06;;;;;;;13.00;4.20;;;;;;;13.76;63.49;100880.19;5373754;26;94808;-93
2024/04/19 07:09:32;;;;;;;12.05;4.03;;;;;;;13.73;63.83;100881.09;5402812;26;94863;-93
2024/04/19 07:11:57;;;;;;;16.27;3.95;;;;;;;13.73;63.62;100882.84;5371758;26;94863;-93
2024/04/19 07:14:22;;;;;;;18.45;4.35;;;;;;;13.69;63.69;100874.09;5353671;26;94821;-93
2024/04/19 07:16:48;;;;;;;13.95;3.20;;;;;;;13.64;63.31;100878.47;5342815;26;95167;-93
2024/04/19 07:19:13;;;;;;;11.25;2.38;;;;;;;13.58;63.36;100883.69;5395102;26;94698;-93
2024/04/19 07:21:39;;;;;;;7.93;2.55;;;;;;;13.53;63.67;100891.56;5355337;26;94946;-92
2024/04/19 07:24:05;;;;;;;7.88;2.10;;;;;;;13.50;63.89;100889.81;5341936;26;95895;-94
2024/04/19 07:26:34;;;;;;;11.52;2.67;;;;;;;13.47;63.57;100886.31;5364132;26;95993;-93
2024/04/19 07:29:00;;;;;;;14.48;2.47;;;;;;;13.45;64.04;100886.28;5337016;26;94874;-92
2024/04/19 07:31:25;;;;;;;9.60;2.65;;;;;;;13.43;63.63;100887.19;5344113;26;94804;-92
2024/04/19 07:33:51;;;;;;;7.75;2.20;;;;;;;13.36;63.46;100882.81;5363077;26;96043;-92
2024/04/19 07:36:16;;;;;;;8.88;2.75;;;;;;;13.28;63.60;100882.72;5360969;26;98650;-93
2024/04/19 07:38:42;;;;;;;5.40;2.35;;;;;;;13.24;63.72;100878.38;5338451;26;94830;-96
2024/04/19 07:41:08;;;;;;;6.00;1.98;;;;;;;13.22;63.96;100878.38;5399590;26;94995;-95
2024/04/19 07:43:34;;;;;;;7.65;1.70;;;;;;;13.22;64.03;100875.75;5368359;26;96660;-93
2024/04/19 07:46:00;;;;;;;6.97;2.50;;;;;;;13.25;64.27;100867.91;5379235;26;98750;-89
2024/04/19 07:48:27;;;;;;;7.18;1.90;;;;;;;13.26;64.38;100874.91;5392969;26;94828;-91
2024/04/19 07:50:52;;;;;;;15.75;2.03;;;;;;;13.28;64.39;100861.78;5388072;26;94934;-91
2024/04/19 07:53:20;;;;;;;8.38;1.48;;;;;;;13.31;64.21;100869.69;5336409;26;95838;-93
2024/04/19 07:55:46;;;;;;;8.02;1.35;;;;;;;13.33;64.42;100871.44;5337044;26;98427;-91
2024/04/19 07:58:12;;;;;;;7.10;1.77;;;;;;;13.35;64.15;100870.56;5375387;26;94816;-89
2024/04/19 08:00:37;;;;;;;5.18;1.63;;;;;;;13.35;64.53;100871.47;5360313;26;94942;-90
2024/04/19 08:03:03;;;;;;;12.07;2.28;;;;;;;13.38;64.41;100860.09;5361712;26;98758;-93
2024/04/19 08:05:29;;;;;;;9.50;2.50;;;;;;;13.40;64.24;100860.97;5366572;26;97058;-92
2024/04/19 08:07:56;;;;;;;8.93;2.17;;;;;;;13.40;64.19;100851.34;5388159;26;94821;-92
2024/04/19 08:10:23;;;;;;;9.82;2.22;;;;;;;13.42;64.55;100848.75;5364723;26;95021;-90
2024/04/19 08:12:50;;;;;;;6.53;1.42;;;;;;;13.45;64.66;100846.13;5357510;26;95724;-90
2024/04/19 08:15:15;;;;;;;8.70;2.15;;;;;;;13.48;64.67;100844.38;5386071;26;95884;-91
2024/04/19 08:17:41;;;;;;;9.15;1.90;;;;;;;13.55;64.84;100844.38;5361633;26;94863;-92
2024/04/19 08:20:07;;;;;;;11.77;2.15;;;;;;;13.60;65.22;100848.78;5354076;26;94964;-91
2024/04/19 08:22:33;;;;;;;11.57;2.90;;;;;;;13.68;65.24;100848.75;5352802;26;96497;-91
2024/04/19 08:24:59;;;;;;;11.45;2.78;;;;;;;13.75;65.14;100837.41;5372334;26;97022;-92
2024/04/19 08:27:24;;;;;;;10.05;2.33;;;;;;;13.81;64.86;100842.63;5387232;26;94872;-89
2024/04/19 08:29:50;;;;;;;11.93;2.65;;;;;;;13.84;64.45;100841.75;5364032;26;94964;-89
2024/04/19 08:32:15;;;;;;;8.65;2.85;;;;;;;13.88;64.54;100843.50;5381723;26;98657;-95
2024/04/19 08:34:41;;;;;;;9.95;1.88;;;;;;;13.89;64.61;100861.00;5361360;26;95881;-96
2024/04/19 08:37:06;;;;;;;12.13;2.60;;;;;;;13.88;64.23;100862.72;5349302;26;94768;-94
2024/04/19 08:39:32;;;;;;;13.55;2.60;;;;;;;13.86;64.13;100871.47;5371808;26;94919;-94
2024/04/19 08:42:05;;;;;;;10.73;2.70;;;;;;;13.79;63.78;100873.22;5330814;26;97638;-93
2024/04/19 08:44:32;;;;;;;7.28;2.55;;;;;;;13.73;63.86;100867.13;5336788;26;97772;-94
2024/04/19 08:46:59;;;;;;;8.50;2.40;;;;;;;13.66;63.77;100882.81;5364900;26;95012;-90
2024/04/19 08:49:26;;;;;;;6.78;2.20;;;;;;;13.57;63.80;100881.97;5359877;26;94821;-96
2024/04/19 08:51:52;;;;;;;4.85;1.38;;;;;;;13.47;63.90;100894.16;5368146;26;94778;-95
2024/04/19 08:54:19;;;;;;;8.82;2.58;;;;;;;13.39;63.77;100891.53;5360440;26;96041;-93
2024/04/19 08:56:45;;;;;;;4.13;1.60;;;;;;;13.32;63.87;100887.16;5358684;26;94804;-94
2024/04/19 08:59:11;;;;;;;3.40;1.00;;;;;;;13.28;64.15;100887.97;5358215;26;95196;-94
2024/04/19 09:01:36;;;;;;;6.80;1.73;;;;;;;13.25;64.46;100878.38;5359318;26;98445;-92
2024/04/19 09:04:02;;;;;;;4.88;1.80;;;;;;;13.24;64.73;100881.84;5349992;26;98438;-95
2024/04/19 09:06:28;;;;;;;4.57;1.40;;;;;;;13.25;64.91;100883.63;5391023;26;95014;-95
2024/04/19 09:08:54;;;;;;;7.03;1.30;;;;;;;13.28;65.27;100883.63;5350475;26;95372;-92
2024/04/19 09:11:20;;;;;;;5.80;0.85;;;;;;;13.37;65.36;100881.91;5352843;26;97467;-92
2024/04/19 09:13:47;;;;;;;6.18;1.80;;;;;;;13.47;66.03;100878.44;5364982;26;95564;-92
2024/04/19 09:16:12;;;;;;;4.03;1.10;;;;;;;13.62;66.06;100885.47;5392428;26;94899;-92
2024/04/19 09:18:38;;;;;;;5.75;1.50;;;;;;;13.71;65.74;100880.22;5400552;26;94952;-95
2024/04/19 09:21:04;;;;;;;6.57;1.58;;;;;;;13.80;65.83;100887.22;5375259;26;95848;-95
2024/04/19 09:23:29;;;;;;;3.10;0.80;;;;;;;13.87;65.73;100881.97;5370248;26;97868;-94
2024/04/19 09:25:56;;;;;;;3.53;0.90;;;;;;;13.94;65.93;100885.47;5369694;26;94863;-91
2024/04/19 09:28:25;;;;;;;3.13;1.20;;;;;;;14.02;65.73;100869.72;5370633;26;95096;-92
2024/04/19 09:30:52;;;;;;;5.80;1.40;;;;;;;14.07;65.53;100878.44;5348935;26;98649;-92
2024/04/19 09:33:24;;;;;;;5.00;0.93;;;;;;;14.14;65.74;100876.69;5367743;26;98461;-93
2024/04/19 09:35:51;;;;;;;5.00;1.20;;;;;;;14.21;65.45;100874.06;5362588;26;94793;-93
2024/04/19 09:41:13;;;;;;;4.10;1.20;;;;;;;14.30;65.09;100877.53;5359607;26;94913;-94
2024/04/19 09:43:46;;;;;;;3.53;1.60;;;;;;;14.26;64.95;100877.53;5359271;26;98453;-92
2024/04/19 09:46:19;;;;;;;3.60;1.05;;;;;;;14.32;65.13;100881.91;5319689;26;94660;-93
2024/04/19 09:48:50;;;;;;;3.78;0.90;;;;;;;14.38;64.99;100873.13;5345401;26;95036;-94
2024/04/19 09:51:29;;;;;;;4.40;1.70;;;;;;;14.41;64.39;100870.50;5341788;26;98693;-93
2024/04/19 09:54:01;;;;;;;3.08;1.00;;;;;;;14.34;63.62;100867.03;5355243;26;98492;-92
2024/04/19 09:56:33;;;;;;;5.13;1.63;;;;;;;14.25;63.65;100865.28;5361270;26;94864;-92
2024/04/19 09:58:59;;;;;;;4.60;1.00;;;;;;;14.21;63.87;100870.56;5348602;26;94790;-92
2024/04/19 10:01:31;;;;;;;5.55;1.92;;;;;;;14.18;64.20;100870.56;5345756;26;97389;-91
2024/04/19 10:04:03;;;;;;;5.30;1.60;;;;;;;14.18;64.65;100867.94;5321906;26;97372;-92
2024/04/19 10:06:32;;;;;;;6.50;1.55;;;;;;;14.31;65.81;100863.53;5310099;26;94797;-92
2024/04/19 10:08:58;;;;;;;4.90;1.00;;;;;;;14.51;66.02;100864.38;5308867;26;95005;-90
2024/04/19 10:11:24;;;;;;;7.30;1.38;;;;;;;14.71;66.06;100858.19;5308469;26;96944;-90
2024/04/19 10:13:52;;;;;;;5.57;1.23;;;;;;;14.88;65.46;100858.09;5338481;26;98808;-91
2024/04/19 10:16:18;;;;;;;5.65;1.48;;;;;;;14.95;64.41;100849.31;5356718;26;94904;-93
2024/04/19 10:18:44;;;;;;;5.63;0.93;;;;;;;14.96;63.98;100849.31;5340310;26;95030;-91
2024/04/19 10:21:12;;;;;;;6.65;1.70;;;;;;;15.00;64.36;100850.16;5354407;26;98122;-92
2024/04/19 10:23:39;;;;;;;6.50;1.52;;;;;;;15.06;63.87;100854.50;5339443;26;98771;-91
2024/04/19 10:26:05;;;;;;;6.35;1.83;;;;;;;15.08;63.56;100853.63;5314943;26;94704;-90
2024/04/19 10:28:31;;;;;;;9.13;1.80;;;;;;;15.07;63.41;100848.38;5353986;26;94828;-92
2024/04/19 10:31:00;;;;;;;6.68;1.40;;;;;;;15.05;62.89;100858.88;5338858;26;98236;-91
2024/04/19 10:33:25;;;;;;;8.05;1.48;;;;;;;15.05;63.18;100848.38;5309829;26;98842;-90
2024/04/19 10:35:56;;;;;;;4.70;1.65;;;;;;;15.09;63.12;100849.25;5351170;26;94778;-90
2024/04/19 10:38:26;;;;;;;7.80;1.33;;;;;;;15.17;63.22;100852.72;5312411;26;94868;-91
2024/04/19 10:40:52;;;;;;;9.27;2.03;;;;;;;15.18;62.78;100854.44;5364689;26;98750;-91
2024/04/19 10:43:18;;;;;;;7.45;2.00;;;;;;;15.12;62.75;100860.59;5342502;26;95575;-91
2024/04/19 10:45:44;;;;;;;9.77;2.15;;;;;;;15.07;62.49;100861.50;5338139;26;94789;-91
2024/04/19 10:48:13;;;;;;;;;;;;;;;14.94;62.39;100858.94;5341922;26;94909;-91
2024/04/19 10:50:41;;;;;;;9.55;1.50;;;;;;;14.87;61.93;100857.25;5337788;26;96958;-93
2024/04/19 10:53:09;;;;;;;11.13;2.55;;;;;;;14.77;61.72;100863.41;5324729;26;95606;-89
2024/04/19 10:55:35;;;;;;;10.25;2.17;;;;;;;14.68;61.97;100866.06;5343852;26;94676;-90
2024/04/19 10:58:00;;;;;;;7.50;1.33;;;;;;;14.61;62.53;100865.22;5340563;26;95034;-90
2024/04/19 11:00:29;;;;;;;10.07;1.90;;;;;;;14.58;62.28;100866.13;5333989;26;98307;-91
2024/04/19 11:02:58;;;;;;;7.85;1.83;;;;;;;14.60;62.78;100863.50;5305537;26;98099;-89
2024/04/19 11:05:25;;;;;;;16.15;2.25;;;;;;;14.64;62.96;100855.59;5329995;26;94818;-89
2024/04/19 11:07:50;;;;;;;10.13;1.98;;;;;;;14.74;63.34;100847.66;5339035;26;94902;-88
2024/04/19 11:10:16;;;;;;;11.15;1.92;;;;;;;14.92;63.92;100854.56;5346668;26;95590;-89
2024/04/19 11:12:41;;;;;;;10.82;2.15;;;;;;;15.11;63.38;100850.09;5316977;26;99358;-89
2024/04/19 11:15:15;;;;;;;8.55;2.22;;;;;;;15.14;62.22;100885.09;5346515;26;94737;-91
2024/04/19 11:17:43;;;;;;;8.70;2.28;;;;;;;15.08;61.30;100898.28;5349430;26;94895;-90
2024/04/19 11:20:09;;;;;;;4.93;1.45;;;;;;;14.93;60.31;100896.59;5341498;26;95983;-90
2024/04/19 11:22:37;;;;;;;6.00;1.05;;;;;;;14.69;59.90;100915.97;5359207;26;97216;-90
2024/04/19 11:25:04;;;;;;;6.35;1.10;;;;;;;14.40;59.51;100905.50;5335616;26;94899;-90
2024/04/19 11:27:30;;;;;;;3.63;0.77;;;;;;;14.13;59.17;100902.03;5338696;26;95017;-90